sensor_id;sensor_type;location;lat;lon;timestamp;pressure;altitude;pressure_sealevel;temperature;humidity
64078;BME280;51039;49.696;10.808;2023-04-08T00:00:43;98588.16;;;3.60;93.47
64078;BME280;51039;49.696;10.808;2023-04-08T00:03:09;98584.53;;;3.52;93.29
64078;BME280;51039;49.696;10.808;2023-04-08T00:05:34;98589.22;;;3.49;93.36
64078;BME280;51039;49.696;10.808;2023-04-08T00:08:00;98579.00;;;3.38;94.30
64078;BME280;51039;49.696;10.808;2023-04-08T00:10:25;98583.25;;;3.39;94.29
64078;BME280;51039;49.696;10.808;2023-04-08T00:12:50;98586.56;;;3.41;94.24
64078;BME280;51039;49.696;10.808;2023-04-08T00:15:16;98586.56;;;3.41;94.05
64078;BME280;51039;49.696;10.808;2023-04-08T00:17:41;98579.28;;;3.34;94.15
64078;BME280;51039;49.696;10.808;2023-04-08T00:20:07;98584.31;;;3.28;94.38
64078;BME280;51039;49.696;10.808;2023-04-08T00:22:32;98580.03;;;3.27;95.08
64078;BME280;51039;49.696;10.808;2023-04-08T00:24:57;98589.69;;;3.26;95.05
64078;BME280;51039;49.696;10.808;2023-04-08T00:27:23;98585.44;;;3.25;95.21
64078;BME280;51039;49.696;10.808;2023-04-08T00:29:49;98595.06;;;3.25;95.11
64078;BME280;51039;49.696;10.808;2023-04-08T00:32:15;98592.09;;;3.20;95.10
64078;BME280;51039;49.696;10.808;2023-04-08T00:34:40;98593.53;;;3.14;94.56
64078;BME280;51039;49.696;10.808;2023-04-08T00:37:06;98589.91;;;3.15;95.03
64078;BME280;51039;49.696;10.808;2023-04-08T00:39:31;98593.53;;;3.14;95.02
64078;BME280;51039;49.696;10.808;2023-04-08T00:41:56;98591.03;;;3.12;94.88
64078;BME280;51039;49.696;10.808;2023-04-08T00:44:22;98600.69;;;3.12;94.55
64078;BME280;51039;49.696;10.808;2023-04-08T00:46:47;98600.84;;;3.10;94.58
64078;BME280;51039;49.696;10.808;2023-04-08T00:49:12;98605.09;;;3.11;95.11
64078;BME280;51039;49.696;10.808;2023-04-08T00:51:38;98597.56;;;3.08;95.83
64078;BME280;51039;49.696;10.808;2023-04-08T00:54:03;98607.56;;;3.13;95.66
64078;BME280;51039;49.696;10.808;2023-04-08T00:56:29;98607.44;;;3.14;95.63
64078;BME280;51039;49.696;10.808;2023-04-08T00:58:56;98602.84;;;3.17;95.57
64078;BME280;51039;49.696;10.808;2023-04-08T01:01:31;98603.38;;;3.20;95.77
64078;BME280;51039;49.696;10.808;2023-04-08T01:06:50;98607.13;;;3.18;96.11
64078;BME280;51039;49.696;10.808;2023-04-08T01:09:24;98615.00;;;3.18;96.14
64078;BME280;51039;49.696;10.808;2023-04-08T01:11:53;98609.44;;;3.21;96.31
64078;BME280;51039;49.696;10.808;2023-04-08T01:14:22;98611.38;;;3.19;96.78
64078;BME280;51039;49.696;10.808;2023-04-08T01:16:53;98610.44;;;3.20;96.80
64078;BME280;51039;49.696;10.808;2023-04-08T01:19:28;98609.16;;;3.24;96.76
64078;BME280;51039;49.696;10.808;2023-04-08T01:24:39;98606.97;;;3.19;97.00
64078;BME280;51039;49.696;10.808;2023-04-08T01:27:08;98605.34;;;3.18;96.75
64078;BME280;51039;49.696;10.808;2023-04-08T01:29:35;98611.91;;;3.22;97.34
64078;BME280;51039;49.696;10.808;2023-04-08T01:32:02;98602.25;;;3.23;97.36
64078;BME280;51039;49.696;10.808;2023-04-08T01:34:28;98604.72;;;3.24;97.32
64078;BME280;51039;49.696;10.808;2023-04-08T01:36:54;98614.38;;;3.24;97.44
64078;BME280;51039;49.696;10.808;2023-04-08T01:39:22;98609.00;;;3.25;97.66
64078;BME280;51039;49.696;10.808;2023-04-08T01:41:49;98603.97;;;3.32;97.55
64078;BME280;51039;49.696;10.808;2023-04-08T01:44:18;98598.88;;;3.30;97.68
64078;BME280;51039;49.696;10.808;2023-04-08T01:46:46;98604.38;;;3.37;97.85
64078;BME280;51039;49.696;10.808;2023-04-08T01:49:14;98605.69;;;3.41;97.43
64078;BME280;51039;49.696;10.808;2023-04-08T01:51:40;98602.41;;;3.39;98.14
64078;BME280;51039;49.696;10.808;2023-04-08T01:54:06;98596.19;;;3.40;98.21
64078;BME280;51039;49.696;10.808;2023-04-08T01:56:32;98602.09;;;3.42;98.10
64078;BME280;51039;49.696;10.808;2023-04-08T01:59:01;98606.06;;;3.46;97.90
64078;BME280;51039;49.696;10.808;2023-04-08T02:01:31;98601.66;;;3.47;97.69
64078;BME280;51039;49.696;10.808;2023-04-08T02:03:59;98606.44;;;3.51;97.19
64078;BME280;51039;49.696;10.808;2023-04-08T02:06:26;98610.25;;;3.57;97.01
64078;BME280;51039;49.696;10.808;2023-04-08T02:08:53;98613.38;;;3.61;96.59
64078;BME280;51039;49.696;10.808;2023-04-08T02:11:20;98612.72;;;3.59;96.16
64078;BME280;51039;49.696;10.808;2023-04-08T02:13:45;98608.44;;;3.58;95.65
64078;BME280;51039;49.696;10.808;2023-04-08T02:16:18;98609.63;;;3.63;94.80
64078;BME280;51039;49.696;10.808;2023-04-08T02:18:50;98613.25;;;3.62;94.57
64078;BME280;51039;49.696;10.808;2023-04-08T02:21:21;98611.97;;;3.66;94.30
64078;BME280;51039;49.696;10.808;2023-04-08T02:23:54;98611.44;;;3.63;93.57
64078;BME280;51039;49.696;10.808;2023-04-08T02:26:23;98612.41;;;3.62;93.92
64078;BME280;51039;49.696;10.808;2023-04-08T02:28:50;98615.72;;;3.64;93.54
64078;BME280;51039;49.696;10.808;2023-04-08T02:31:18;98619.28;;;3.63;93.37
64078;BME280;51039;49.696;10.808;2023-04-08T02:33:45;98613.25;;;3.62;93.58
64078;BME280;51039;49.696;10.808;2023-04-08T02:36:11;98615.34;;;3.59;93.57
64078;BME280;51039;49.696;10.808;2023-04-08T02:38:39;98622.00;;;3.53;93.34
64078;BME280;51039;49.696;10.808;2023-04-08T02:41:04;98624.47;;;3.54;93.55
64078;BME280;51039;49.696;10.808;2023-04-08T02:43:30;98624.09;;;3.49;93.64
64078;BME280;51039;49.696;10.808;2023-04-08T02:45:58;98625.09;;;3.48;93.49
64078;BME280;51039;49.696;10.808;2023-04-08T02:48:27;98618.47;;;3.44;93.62
64078;BME280;51039;49.696;10.808;2023-04-08T02:50:52;98625.53;;;3.44;93.65
64078;BME280;51039;49.696;10.808;2023-04-08T02:53:17;98620.41;;;3.42;93.57
64078;BME280;51039;49.696;10.808;2023-04-08T02:55:43;98624.84;;;3.42;93.88
64078;BME280;51039;49.696;10.808;2023-04-08T02:58:08;98626.34;;;3.44;93.33
64078;BME280;51039;49.696;10.808;2023-04-08T03:00:33;98621.69;;;3.38;93.59
64078;BME280;51039;49.696;10.808;2023-04-08T03:02:58;98626.13;;;3.38;94.08
64078;BME280;51039;49.696;10.808;2023-04-08T03:05:25;98634.13;;;3.36;94.43
64078;BME280;51039;49.696;10.808;2023-04-08T03:07:50;98638.53;;;3.36;94.54
64078;BME280;51039;49.696;10.808;2023-04-08T03:10:15;98632.50;;;3.35;94.56
64078;BME280;51039;49.696;10.808;2023-04-08T03:12:41;98644.31;;;3.39;94.39
64078;BME280;51039;49.696;10.808;2023-04-08T03:15:06;98639.06;;;3.39;94.38
64078;BME280;51039;49.696;10.808;2023-04-08T03:17:32;98633.97;;;3.38;94.14
64078;BME280;51039;49.696;10.808;2023-04-08T03:19:58;98638.69;;;3.34;94.01
64078;BME280;51039;49.696;10.808;2023-04-08T03:22:24;98643.13;;;3.33;93.95
64078;BME280;51039;49.696;10.808;2023-04-08T03:24:50;98644.91;;;3.33;93.82
64078;BME280;51039;49.696;10.808;2023-04-08T03:27:15;98639.69;;;3.33;93.61
64078;BME280;51039;49.696;10.808;2023-04-08T03:29:40;98641.59;;;3.31;92.98
64078;BME280;51039;49.696;10.808;2023-04-08T03:32:05;98642.59;;;3.30;93.02
64078;BME280;51039;49.696;10.808;2023-04-08T03:34:32;98650.72;;;3.27;92.84
64078;BME280;51039;49.696;10.808;2023-04-08T03:36:58;98652.66;;;3.25;92.77
64078;BME280;51039;49.696;10.808;2023-04-08T03:39:23;98644.47;;;3.20;92.82
64078;BME280;51039;49.696;10.808;2023-04-08T03:41:49;98648.31;;;3.15;92.98
64078;BME280;51039;49.696;10.808;2023-04-08T03:44:14;98657.00;;;3.16;93.37
64078;BME280;51039;49.696;10.808;2023-04-08T03:46:39;98654.41;;;3.16;93.03
64078;BME280;51039;49.696;10.808;2023-04-08T03:49:05;98647.50;;;3.15;92.88
64078;BME280;51039;49.696;10.808;2023-04-08T03:51:31;98651.53;;;3.09;92.87
64078;BME280;51039;49.696;10.808;2023-04-08T03:53:56;98653.47;;;3.07;93.24
64078;BME280;51039;49.696;10.808;2023-04-08T03:56:21;98648.56;;;3.04;93.11
64078;BME280;51039;49.696;10.808;2023-04-08T03:58:47;98656.69;;;3.01;93.72
64078;BME280;51039;49.696;10.808;2023-04-08T04:01:12;98652.19;;;2.93;93.63
64078;BME280;51039;49.696;10.808;2023-04-08T04:03:37;98658.22;;;2.94;93.36
64078;BME280;51039;49.696;10.808;2023-04-08T04:06:03;98661.16;;;2.91;93.37
64078;BME280;51039;49.696;10.808;2023-04-08T04:08:28;98655.41;;;2.87;93.37
64078;BME280;51039;49.696;10.808;2023-04-08T04:10:54;98658.16;;;2.86;93.64
64078;BME280;51039;49.696;10.808;2023-04-08T04:13:19;98662.25;;;2.88;93.28
64078;BME280;51039;49.696;10.808;2023-04-08T04:15:45;98655.09;;;2.90;92.97
64078;BME280;51039;49.696;10.808;2023-04-08T04:18:11;98665.28;;;2.93;92.84
64078;BME280;51039;49.696;10.808;2023-04-08T04:20:42;98664.72;;;2.90;93.02
64078;BME280;51039;49.696;10.808;2023-04-08T04:23:08;98664.72;;;2.90;93.04
64078;BME280;51039;49.696;10.808;2023-04-08T04:25:33;98669.81;;;2.91;93.11
64078;BME280;51039;49.696;10.808;2023-04-08T04:27:59;98664.34;;;2.85;93.32
64078;BME280;51039;49.696;10.808;2023-04-08T04:30:25;98670.09;;;2.88;93.99
64078;BME280;51039;49.696;10.808;2023-04-08T04:32:51;98669.69;;;2.93;93.94
64078;BME280;51039;49.696;10.808;2023-04-08T04:35:16;98667.75;;;2.95;94.14
64078;BME280;51039;49.696;10.808;2023-04-08T04:37:41;98665.88;;;3.05;93.91
64078;BME280;51039;49.696;10.808;2023-04-08T04:40:07;98666.28;;;3.10;93.67
64078;BME280;51039;49.696;10.808;2023-04-08T04:42:32;98671.72;;;3.17;93.36
64078;BME280;51039;49.696;10.808;2023-04-08T04:44:58;98667.69;;;3.23;93.35
64078;BME280;51039;49.696;10.808;2023-04-08T04:47:23;98672.06;;;3.32;92.64
64078;BME280;51039;49.696;10.808;2023-04-08T04:49:49;98676.69;;;3.38;92.42
64078;BME280;51039;49.696;10.808;2023-04-08T04:52:15;98671.84;;;3.43;92.01
64078;BME280;51039;49.696;10.808;2023-04-08T04:54:40;98677.16;;;3.51;91.76
64078;BME280;51039;49.696;10.808;2023-04-08T04:57:06;98679.16;;;3.58;91.78
64078;BME280;51039;49.696;10.808;2023-04-08T04:59:31;98682.16;;;3.63;91.83
64078;BME280;51039;49.696;10.808;2023-04-08T05:01:56;98684.63;;;3.64;91.91
64078;BME280;51039;49.696;10.808;2023-04-08T05:04:24;98681.88;;;3.66;92.35
64078;BME280;51039;49.696;10.808;2023-04-08T05:06:50;98687.47;;;3.71;91.73
64078;BME280;51039;49.696;10.808;2023-04-08T05:09:16;98687.69;;;3.78;91.49
64078;BME280;51039;49.696;10.808;2023-04-08T05:11:41;98687.09;;;3.84;91.23
64078;BME280;51039;49.696;10.808;2023-04-08T05:14:06;98686.63;;;3.88;91.42
64078;BME280;51039;49.696;10.808;2023-04-08T05:16:32;98692.09;;;3.95;90.23
64078;BME280;51039;49.696;10.808;2023-04-08T05:18:58;98689.00;;;4.00;89.42
64078;BME280;51039;49.696;10.808;2023-04-08T05:21:23;98695.59;;;4.04;89.63
64078;BME280;51039;49.696;10.808;2023-04-08T05:23:48;98703.97;;;4.07;87.86
64078;BME280;51039;49.696;10.808;2023-04-08T05:26:16;98699.91;;;4.13;82.92
64078;BME280;51039;49.696;10.808;2023-04-08T05:28:43;98702.59;;;4.21;81.38
64078;BME280;51039;49.696;10.808;2023-04-08T05:31:08;98708.25;;;4.35;81.41
64078;BME280;51039;49.696;10.808;2023-04-08T05:33:33;98706.00;;;4.40;78.29
64078;BME280;51039;49.696;10.808;2023-04-08T05:35:58;98711.63;;;4.45;77.21
64078;BME280;51039;49.696;10.808;2023-04-08T05:38:24;98711.63;;;4.45;76.54
64078;BME280;51039;49.696;10.808;2023-04-08T05:40:49;98712.44;;;4.45;76.81
64078;BME280;51039;49.696;10.808;2023-04-08T05:43:15;98717.66;;;4.45;77.68
64078;BME280;51039;49.696;10.808;2023-04-08T05:45:40;98724.41;;;4.48;77.26
64078;BME280;51039;49.696;10.808;2023-04-08T05:48:05;98715.72;;;4.47;77.62
64078;BME280;51039;49.696;10.808;2023-04-08T05:50:32;98721.94;;;4.46;77.76
64078;BME280;51039;49.696;10.808;2023-04-08T05:52:59;98727.69;;;4.50;78.28
64078;BME280;51039;49.696;10.808;2023-04-08T05:55:24;98728.34;;;4.52;78.03
64078;BME280;51039;49.696;10.808;2023-04-08T05:57:49;98735.13;;;4.55;78.04
64078;BME280;51039;49.696;10.808;2023-04-08T06:00:15;98733.81;;;4.59;77.25
64078;BME280;51039;49.696;10.808;2023-04-08T06:02:40;98731.88;;;4.61;77.37
64078;BME280;51039;49.696;10.808;2023-04-08T06:05:06;98736.28;;;4.60;77.54
64078;BME280;51039;49.696;10.808;2023-04-08T06:07:31;98744.34;;;4.67;77.08
64078;BME280;51039;49.696;10.808;2023-04-08T06:09:57;98744.50;;;4.65;77.23
64078;BME280;51039;49.696;10.808;2023-04-08T06:12:22;98749.34;;;4.78;77.87
64078;BME280;51039;49.696;10.808;2023-04-08T06:14:49;98753.09;;;4.76;77.77
64078;BME280;51039;49.696;10.808;2023-04-08T06:17:17;98748.47;;;4.69;78.59
64078;BME280;51039;49.696;10.808;2023-04-08T06:19:43;98755.84;;;4.66;79.66
64078;BME280;51039;49.696;10.808;2023-04-08T06:22:08;98760.75;;;4.69;81.75
64078;BME280;51039;49.696;10.808;2023-04-08T06:24:33;98753.28;;;4.82;81.43
64078;BME280;51039;49.696;10.808;2023-04-08T06:26:59;98755.16;;;4.98;82.69
64078;BME280;51039;49.696;10.808;2023-04-08T06:29:24;98754.94;;;5.18;82.74
64078;BME280;51039;49.696;10.808;2023-04-08T06:31:49;98762.50;;;5.29;82.14
64078;BME280;51039;49.696;10.808;2023-04-08T06:34:15;98753.00;;;5.28;82.29
64078;BME280;51039;49.696;10.808;2023-04-08T06:36:40;98757.63;;;5.34;80.73
64078;BME280;51039;49.696;10.808;2023-04-08T06:39:06;98761.69;;;4.86;82.92
64078;BME280;51039;49.696;10.808;2023-04-08T06:41:31;98766.63;;;4.89;84.08
64078;BME280;51039;49.696;10.808;2023-04-08T06:43:56;98765.28;;;4.85;83.98
64078;BME280;51039;49.696;10.808;2023-04-08T06:46:22;98764.84;;;4.98;84.32
64078;BME280;51039;49.696;10.808;2023-04-08T06:48:47;98770.63;;;5.01;85.52
64078;BME280;51039;49.696;10.808;2023-04-08T06:51:12;98772.81;;;4.80;85.56
64078;BME280;51039;49.696;10.808;2023-04-08T06:53:38;98778.22;;;4.78;87.00
64078;BME280;51039;49.696;10.808;2023-04-08T06:56:03;98780.16;;;4.76;86.57
64078;BME280;51039;49.696;10.808;2023-04-08T06:58:28;98791.47;;;4.77;87.33
64078;BME280;51039;49.696;10.808;2023-04-08T07:00:54;98792.00;;;4.80;88.72
64078;BME280;51039;49.696;10.808;2023-04-08T07:03:20;98796.97;;;4.65;88.18
64078;BME280;51039;49.696;10.808;2023-04-08T07:05:46;98786.84;;;4.70;89.52
64078;BME280;51039;49.696;10.808;2023-04-08T07:08:11;98792.16;;;4.79;88.74
64078;BME280;51039;49.696;10.808;2023-04-08T07:10:37;98794.84;;;4.87;90.07
64078;BME280;51039;49.696;10.808;2023-04-08T07:13:02;98794.75;;;5.05;89.11
64078;BME280;51039;49.696;10.808;2023-04-08T07:15:28;98796.00;;;4.92;89.46
64078;BME280;51039;49.696;10.808;2023-04-08T07:17:53;98797.13;;;5.16;90.02
64078;BME280;51039;49.696;10.808;2023-04-08T07:20:21;98800.16;;;5.03;89.43
64078;BME280;51039;49.696;10.808;2023-04-08T07:22:46;98794.81;;;5.21;91.86
64078;BME280;51039;49.696;10.808;2023-04-08T07:25:12;98800.97;;;5.38;89.52
64078;BME280;51039;49.696;10.808;2023-04-08T07:27:37;98794.94;;;5.54;89.14
64078;BME280;51039;49.696;10.808;2023-04-08T07:30:03;98807.41;;;5.44;89.34
64078;BME280;51039;49.696;10.808;2023-04-08T07:32:28;98808.59;;;5.58;90.11
64078;BME280;51039;49.696;10.808;2023-04-08T07:34:54;98814.34;;;5.53;89.24
64078;BME280;51039;49.696;10.808;2023-04-08T07:37:19;98812.22;;;5.65;90.17
64078;BME280;51039;49.696;10.808;2023-04-08T07:39:44;98811.44;;;5.73;89.10
64078;BME280;51039;49.696;10.808;2023-04-08T07:42:10;98819.63;;;5.27;89.98
64078;BME280;51039;49.696;10.808;2023-04-08T07:44:36;98815.69;;;5.23;91.23
64078;BME280;51039;49.696;10.808;2023-04-08T07:47:02;98823.78;;;5.29;91.03
64078;BME280;51039;49.696;10.808;2023-04-08T07:49:27;98816.09;;;5.44;90.74
64078;BME280;51039;49.696;10.808;2023-04-08T07:51:52;98820.25;;;5.13;89.67
64078;BME280;51039;49.696;10.808;2023-04-08T07:54:18;98828.94;;;5.13;91.78
64078;BME280;51039;49.696;10.808;2023-04-08T07:56:43;98815.59;;;5.41;90.59
64078;BME280;51039;49.696;10.808;2023-04-08T07:59:09;98825.38;;;5.65;90.12
64078;BME280;51039;49.696;10.808;2023-04-08T08:01:36;98826.53;;;5.70;89.24
64078;BME280;51039;49.696;10.808;2023-04-08T08:04:01;98825.34;;;5.57;89.57
64078;BME280;51039;49.696;10.808;2023-04-08T08:06:27;98827.56;;;5.94;89.57
64078;BME280;51039;49.696;10.808;2023-04-08T08:08:52;98832.84;;;5.94;88.37
64078;BME280;51039;49.696;10.808;2023-04-08T08:11:18;98832.81;;;5.86;88.90
64078;BME280;51039;49.696;10.808;2023-04-08T08:13:43;98832.22;;;6.00;88.56
64078;BME280;51039;49.696;10.808;2023-04-08T08:16:08;98835.03;;;6.07;88.65
64078;BME280;51039;49.696;10.808;2023-04-08T08:18:35;98841.06;;;5.91;87.39
64078;BME280;51039;49.696;10.808;2023-04-08T08:21:01;98835.69;;;6.01;86.44
64078;BME280;51039;49.696;10.808;2023-04-08T08:23:27;98830.16;;;6.45;85.71
64078;BME280;51039;49.696;10.808;2023-04-08T08:25:59;98847.06;;;6.42;85.41
64078;BME280;51039;49.696;10.808;2023-04-08T08:28:26;98841.28;;;6.88;86.71
64078;BME280;51039;49.696;10.808;2023-04-08T08:30:51;98848.88;;;6.75;83.52
64078;BME280;51039;49.696;10.808;2023-04-08T08:33:17;98847.25;;;6.74;82.91
64078;BME280;51039;49.696;10.808;2023-04-08T08:35:42;98843.41;;;6.93;83.69
64078;BME280;51039;49.696;10.808;2023-04-08T08:38:07;98848.69;;;7.01;82.74
64078;BME280;51039;49.696;10.808;2023-04-08T08:40:33;98844.91;;;6.87;81.56
64078;BME280;51039;49.696;10.808;2023-04-08T08:42:58;98845.69;;;7.04;82.91
64078;BME280;51039;49.696;10.808;2023-04-08T08:45:25;98852.66;;;6.72;82.47
64078;BME280;51039;49.696;10.808;2023-04-08T08:47:50;98853.81;;;6.61;84.41
64078;BME280;51039;49.696;10.808;2023-04-08T08:50:16;98855.94;;;6.82;85.89
64078;BME280;51039;49.696;10.808;2023-04-08T08:52:47;98858.59;;;6.49;84.01
64078;BME280;51039;49.696;10.808;2023-04-08T08:55:14;98866.31;;;6.67;83.55
64078;BME280;51039;49.696;10.808;2023-04-08T08:57:40;98862.03;;;6.91;82.36
64078;BME280;51039;49.696;10.808;2023-04-08T09:00:05;98870.75;;;6.92;83.17
64078;BME280;51039;49.696;10.808;2023-04-08T09:02:31;98871.41;;;6.85;82.51
64078;BME280;51039;49.696;10.808;2023-04-08T09:04:58;98871.56;;;6.35;85.29
64078;BME280;51039;49.696;10.808;2023-04-08T09:07:25;98867.13;;;6.27;86.12
64078;BME280;51039;49.696;10.808;2023-04-08T09:09:51;98881.13;;;6.27;87.04
64078;BME280;51039;49.696;10.808;2023-04-08T09:12:17;98871.06;;;6.31;86.80
64078;BME280;51039;49.696;10.808;2023-04-08T09:14:44;98872.22;;;6.28;87.90
64078;BME280;51039;49.696;10.808;2023-04-08T09:17:10;98876.47;;;6.21;89.22
64078;BME280;51039;49.696;10.808;2023-04-08T09:19:35;98881.59;;;6.23;90.26
64078;BME280;51039;49.696;10.808;2023-04-08T09:22:04;98883.44;;;6.55;89.68
64078;BME280;51039;49.696;10.808;2023-04-08T09:24:31;98887.03;;;6.79;88.56
64078;BME280;51039;49.696;10.808;2023-04-08T09:26:57;98880.78;;;6.88;86.60
64078;BME280;51039;49.696;10.808;2023-04-08T09:29:23;98882.59;;;6.87;85.02
64078;BME280;51039;49.696;10.808;2023-04-08T09:31:54;98880.81;;;6.80;86.55
64078;BME280;51039;49.696;10.808;2023-04-08T09:34:20;98878.44;;;7.10;86.32
64078;BME280;51039;49.696;10.808;2023-04-08T09:36:47;98880.09;;;7.19;84.66
64078;BME280;51039;49.696;10.808;2023-04-08T09:39:16;98883.56;;;7.11;86.38
64078;BME280;51039;49.696;10.808;2023-04-08T09:41:42;98882.00;;;7.33;84.29
64078;BME280;51039;49.696;10.808;2023-04-08T09:44:09;98880.38;;;7.32;85.70
64078;BME280;51039;49.696;10.808;2023-04-08T09:46:39;98886.34;;;7.26;84.93
64078;BME280;51039;49.696;10.808;2023-04-08T09:57:16;98886.63;;;7.31;83.50
64078;BME280;51039;49.696;10.808;2023-04-08T10:05:06;98885.81;;;7.78;79.56
64078;BME280;51039;49.696;10.808;2023-04-08T10:07:33;98887.31;;;8.12;80.20
64078;BME280;51039;49.696;10.808;2023-04-08T10:09:59;98888.72;;;8.23;79.21
64078;BME280;51039;49.696;10.808;2023-04-08T10:12:26;98884.50;;;8.45;78.56
64078;BME280;51039;49.696;10.808;2023-04-08T10:17:51;98889.00;;;8.97;77.40
64078;BME280;51039;49.696;10.808;2023-04-08T10:23:00;98886.13;;;9.52;74.32
64078;BME280;51039;49.696;10.808;2023-04-08T10:25:27;98884.22;;;9.60;73.72
64078;BME280;51039;49.696;10.808;2023-04-08T10:27:55;98887.88;;;9.30;74.17
64078;BME280;51039;49.696;10.808;2023-04-08T10:32:55;98883.94;;;9.26;75.28
64078;BME280;51039;49.696;10.808;2023-04-08T10:35:30;98885.50;;;9.50;74.69
64078;BME280;51039;49.696;10.808;2023-04-08T10:37:58;98890.75;;;9.94;72.58
64078;BME280;51039;49.696;10.808;2023-04-08T10:40:24;98881.13;;;9.57;73.60
64078;BME280;51039;49.696;10.808;2023-04-08T10:42:56;98882.41;;;9.61;74.06
64078;BME280;51039;49.696;10.808;2023-04-08T10:45:22;98875.38;;;9.23;74.87
64078;BME280;51039;49.696;10.808;2023-04-08T10:47:48;98872.72;;;9.38;75.71
64078;BME280;51039;49.696;10.808;2023-04-08T10:50:14;98875.03;;;9.41;73.43
64078;BME280;51039;49.696;10.808;2023-04-08T10:55:12;98877.56;;;9.20;74.54
64078;BME280;51039;49.696;10.808;2023-04-08T10:57:37;98878.31;;;9.43;74.68
64078;BME280;51039;49.696;10.808;2023-04-08T11:00:05;98871.38;;;9.57;74.04
64078;BME280;51039;49.696;10.808;2023-04-08T11:02:34;98877.47;;;9.28;75.06
64078;BME280;51039;49.696;10.808;2023-04-08T11:05:02;98876.38;;;9.22;74.99
64078;BME280;51039;49.696;10.808;2023-04-08T11:07:28;98874.53;;;8.93;75.69
64078;BME280;51039;49.696;10.808;2023-04-08T11:09:53;98864.16;;;9.07;76.24
64078;BME280;51039;49.696;10.808;2023-04-08T11:12:19;98873.94;;;9.51;74.65
64078;BME280;51039;49.696;10.808;2023-04-08T11:14:46;98870.09;;;9.53;74.36
64078;BME280;51039;49.696;10.808;2023-04-08T11:17:13;98864.41;;;9.86;73.17
64078;BME280;51039;49.696;10.808;2023-04-08T11:19:39;98867.34;;;10.13;72.85
64078;BME280;51039;49.696;10.808;2023-04-08T11:22:05;98867.19;;;9.99;73.10
64078;BME280;51039;49.696;10.808;2023-04-08T11:24:33;98865.44;;;10.07;72.20
64078;BME280;51039;49.696;10.808;2023-04-08T11:27:00;98859.72;;;10.03;72.41
64078;BME280;51039;49.696;10.808;2023-04-08T11:29:27;98864.13;;;10.17;72.42
64078;BME280;51039;49.696;10.808;2023-04-08T11:31:54;98875.84;;;10.08;72.32
64078;BME280;51039;49.696;10.808;2023-04-08T11:34:23;98868.91;;;10.07;72.05
64078;BME280;51039;49.696;10.808;2023-04-08T11:36:49;98873.31;;;10.36;71.82
64078;BME280;51039;49.696;10.808;2023-04-08T11:39:15;98863.72;;;10.78;69.46
64078;BME280;51039;49.696;10.808;2023-04-08T11:41:40;98861.69;;;10.80;68.98
64078;BME280;51039;49.696;10.808;2023-04-08T11:44:06;98862.50;;;11.37;67.98
64078;BME280;51039;49.696;10.808;2023-04-08T11:46:32;98860.78;;;11.65;66.70
64078;BME280;51039;49.696;10.808;2023-04-08T11:49:07;98865.78;;;11.88;65.17
64078;BME280;51039;49.696;10.808;2023-04-08T11:51:34;98855.50;;;11.65;66.49
64078;BME280;51039;49.696;10.808;2023-04-08T11:54:25;98855.75;;;11.76;66.26
64078;BME280;51039;49.696;10.808;2023-04-08T11:56:54;98853.97;;;11.14;66.66
64078;BME280;51039;49.696;10.808;2023-04-08T11:59:22;98850.47;;;11.07;66.39
64078;BME280;51039;49.696;10.808;2023-04-08T12:01:47;98851.56;;;11.19;67.30
64078;BME280;51039;49.696;10.808;2023-04-08T12:04:13;98856.34;;;12.27;64.34
64078;BME280;51039;49.696;10.808;2023-04-08T12:06:38;98861.28;;;12.70;63.00
64078;BME280;51039;49.696;10.808;2023-04-08T12:09:03;98859.78;;;12.21;62.62
64078;BME280;51039;49.696;10.808;2023-04-08T12:11:28;98862.66;;;12.26;62.96
64078;BME280;51039;49.696;10.808;2023-04-08T12:13:54;98860.03;;;12.52;62.57
64078;BME280;51039;49.696;10.808;2023-04-08T12:16:20;98858.34;;;11.28;64.80
64078;BME280;51039;49.696;10.808;2023-04-08T12:18:46;98849.97;;;10.96;66.46
64078;BME280;51039;49.696;10.808;2023-04-08T12:21:11;98853.59;;;11.17;66.97
64078;BME280;51039;49.696;10.808;2023-04-08T12:23:36;98854.41;;;10.89;66.05
64078;BME280;51039;49.696;10.808;2023-04-08T12:26:02;98857.72;;;10.91;66.79
64078;BME280;51039;49.696;10.808;2023-04-08T12:28:28;98850.38;;;10.93;67.81
64078;BME280;51039;49.696;10.808;2023-04-08T12:30:53;98843.81;;;10.39;68.59
64078;BME280;51039;49.696;10.808;2023-04-08T12:33:19;98855.72;;;9.77;70.65
64078;BME280;51039;49.696;10.808;2023-04-08T12:35:44;98854.00;;;9.70;70.96
64078;BME280;51039;49.696;10.808;2023-04-08T12:38:09;98861.81;;;9.41;70.84
64078;BME280;51039;49.696;10.808;2023-04-08T12:40:34;98859.34;;;9.40;70.98
64078;BME280;51039;49.696;10.808;2023-04-08T12:43:00;98862.78;;;9.26;71.28
64078;BME280;51039;49.696;10.808;2023-04-08T12:45:25;98867.50;;;9.00;73.08
64078;BME280;51039;49.696;10.808;2023-04-08T12:47:50;98863.53;;;9.04;73.55
64078;BME280;51039;49.696;10.808;2023-04-08T12:50:16;98861.88;;;9.03;73.55
64078;BME280;51039;49.696;10.808;2023-04-08T12:52:41;98862.16;;;9.09;73.15
64078;BME280;51039;49.696;10.808;2023-04-08T12:55:06;98867.06;;;8.97;73.47
64078;BME280;51039;49.696;10.808;2023-04-08T12:57:32;98872.44;;;9.03;73.63
64078;BME280;51039;49.696;10.808;2023-04-08T12:59:57;98861.78;;;9.12;73.06
64078;BME280;51039;49.696;10.808;2023-04-08T13:02:22;98867.78;;;9.06;72.70
64078;BME280;51039;49.696;10.808;2023-04-08T13:04:49;98868.59;;;8.91;72.71
64078;BME280;51039;49.696;10.808;2023-04-08T13:07:16;98877.97;;;8.94;72.87
64078;BME280;51039;49.696;10.808;2023-04-08T13:09:41;98875.09;;;9.03;72.73
64078;BME280;51039;49.696;10.808;2023-04-08T13:12:06;98886.19;;;9.14;72.63
64078;BME280;51039;49.696;10.808;2023-04-08T13:14:32;98875.38;;;9.09;71.37
64078;BME280;51039;49.696;10.808;2023-04-08T13:16:57;98877.56;;;9.20;71.58
64078;BME280;51039;49.696;10.808;2023-04-08T13:19:22;98874.84;;;9.28;70.99
64078;BME280;51039;49.696;10.808;2023-04-08T13:21:47;98880.22;;;9.35;71.09
64078;BME280;51039;49.696;10.808;2023-04-08T13:24:13;98883.50;;;9.52;71.75